createdAt,value
2019-05-17T00:01:57.668Z,7.87
2019-05-17T00:04:30.490Z,7.20
2019-05-17T00:07:02.779Z,7.90
2019-05-17T00:09:37.263Z,7.57
2019-05-17T00:12:08.989Z,7.67
2019-05-17T00:14:41.222Z,7.67
2019-05-17T00:17:13.471Z,8.40
2019-05-17T00:19:46.461Z,8.37
2019-05-17T00:22:18.834Z,8.50
2019-05-17T00:24:51.075Z,8.40
2019-05-17T00:27:23.785Z,9.10
2019-05-17T00:29:57.127Z,9.90
2019-05-17T00:32:29.553Z,9.13
2019-05-17T00:35:01.935Z,9.93
2019-05-17T00:37:34.120Z,9.93
2019-05-17T00:40:07.328Z,10.23
2019-05-17T00:42:39.685Z,9.90
2019-05-17T00:45:11.950Z,9.70
2019-05-17T00:47:46.596Z,10.43
2019-05-17T00:50:18.544Z,10.73
2019-05-17T00:52:52.777Z,10.60
2019-05-17T00:55:26.849Z,10.60
2019-05-17T00:58:01.684Z,10.97
2019-05-17T01:00:37.600Z,10.33
2019-05-17T01:03:09.904Z,10.80
2019-05-17T01:05:42.180Z,11.57
2019-05-17T01:08:14.457Z,10.57
2019-05-17T01:10:47.398Z,11.37
2019-05-17T01:13:19.986Z,11.60
2019-05-17T01:15:52.235Z,11.27
2019-05-17T01:18:26.770Z,11.80
2019-05-17T01:21:00.684Z,11.80
2019-05-17T01:23:33.285Z,12.47
2019-05-17T01:26:07.529Z,11.63
2019-05-17T01:28:41.460Z,13.10
2019-05-17T01:31:13.686Z,12.03
2019-05-17T01:33:47.015Z,11.87
2019-05-17T01:36:19.591Z,13.50
2019-05-17T01:38:51.863Z,11.97
2019-05-17T01:41:24.080Z,12.93
2019-05-17T01:43:56.942Z,13.47
2019-05-17T01:46:29.335Z,12.67
2019-05-17T01:49:01.915Z,12.67
2019-05-17T01:51:34.245Z,13.00
2019-05-17T01:54:06.920Z,12.20
2019-05-17T01:56:39.207Z,13.13
2019-05-17T01:59:11.765Z,11.70
2019-05-17T02:01:43.998Z,11.33
2019-05-17T02:04:17.515Z,12.40
2019-05-17T02:06:49.946Z,11.90
2019-05-17T02:09:34.965Z,13.13
2019-05-17T02:11:57.177Z,13.90
2019-05-17T02:14:29.709Z,11.97
2019-05-17T02:17:01.979Z,11.77
2019-05-17T02:19:34.220Z,12.23
2019-05-17T02:22:07.462Z,12.33
2019-05-17T02:24:39.921Z,12.50
2019-05-17T02:27:12.151Z,13.70
2019-05-17T02:29:44.391Z,12.23
2019-05-17T02:32:16.657Z,13.27
2019-05-17T02:34:52.952Z,12.17
2019-05-17T02:37:23.899Z,12.17
2019-05-17T02:40:03.059Z,11.87
2019-05-17T02:42:32.981Z,12.53
2019-05-17T02:45:06.101Z,12.37
2019-05-17T02:47:38.338Z,12.00
2019-05-17T02:50:12.946Z,12.60
2019-05-17T02:52:44.486Z,12.80
2019-05-17T02:55:16.736Z,12.60
2019-05-17T02:57:49.035Z,13.30
2019-05-17T03:00:23.947Z,13.47
2019-05-17T03:02:55.215Z,13.63
2019-05-17T03:05:27.463Z,14.00
2019-05-17T03:08:03.622Z,13.37
2019-05-17T03:10:34.124Z,14.33
2019-05-17T03:13:06.443Z,13.03
2019-05-17T03:15:38.711Z,14.23
2019-05-17T03:18:13.434Z,13.43
2019-05-17T03:20:46.002Z,15.03
2019-05-17T03:23:18.240Z,13.97
2019-05-17T03:25:52.490Z,14.17
2019-05-17T03:28:25.545Z,14.93
2019-05-17T03:30:57.762Z,15.10
2019-05-17T03:33:35.228Z,16.37
2019-05-17T03:36:06.463Z,14.93
2019-05-17T03:38:37.861Z,16.80
2019-05-17T03:41:22.826Z,16.13
2019-05-17T03:43:44.475Z,16.00
2019-05-17T03:46:16.905Z,16.50
2019-05-17T03:48:49.112Z,16.40
2019-05-17T03:51:23.361Z,16.00
2019-05-17T03:53:55.310Z,16.53
2019-05-17T03:56:27.720Z,18.10
2019-05-17T03:59:03.409Z,16.67
2019-05-17T04:01:34.077Z,16.97
2019-05-17T04:04:06.370Z,17.37
2019-05-17T04:06:38.634Z,19.03
2019-05-17T04:09:14.066Z,17.60
2019-05-17T04:11:46.534Z,17.60
2019-05-17T04:14:18.754Z,18.17
2019-05-17T04:16:53.671Z,17.40
2019-05-17T04:19:24.947Z,17.57
2019-05-17T04:21:57.380Z,19.30
2019-05-17T04:24:32.449Z,18.60
2019-05-17T04:27:04.001Z,19.23
2019-05-17T04:29:36.345Z,18.47
2019-05-17T04:32:08.645Z,18.73
2019-05-17T04:34:43.679Z,18.67
2019-05-17T04:37:14.919Z,19.50
2019-05-17T04:39:47.150Z,18.87
2019-05-17T04:42:22.418Z,19.00
2019-05-17T04:44:53.562Z,19.43
2019-05-17T04:47:28.200Z,17.63
2019-05-17T04:50:03.602Z,18.13
2019-05-17T04:52:34.471Z,19.40
2019-05-17T04:55:06.799Z,18.20
2019-05-17T04:57:43.324Z,19.00
2019-05-17T05:00:14.122Z,17.57
2019-05-17T05:02:46.411Z,17.70
2019-05-17T05:05:18.645Z,19.47
2019-05-17T05:07:53.468Z,16.83
2019-05-17T05:10:24.901Z,18.80
2019-05-17T05:12:57.341Z,18.87
2019-05-17T05:15:32.232Z,18.40
2019-05-17T05:18:04.164Z,18.37
2019-05-17T05:20:36.471Z,20.03
2019-05-17T05:23:08.746Z,19.60
2019-05-17T05:25:42.994Z,18.30
2019-05-17T05:28:14.951Z,17.80
2019-05-17T05:30:47.190Z,16.73
2019-05-17T05:33:22.167Z,16.10
2019-05-17T05:35:54.796Z,15.67
2019-05-17T05:38:27.029Z,14.97
2019-05-17T05:41:01.597Z,13.73
2019-05-17T05:43:33.437Z,12.77
2019-05-17T05:46:05.740Z,13.80
2019-05-17T05:48:38.014Z,15.07
2019-05-17T05:51:13.420Z,13.37
2019-05-17T05:53:44.428Z,11.50
2019-05-17T05:56:16.704Z,13.33
2019-05-17T05:58:49.030Z,13.13
2019-05-17T06:01:21.978Z,12.57
2019-05-17T06:03:55.576Z,12.03
2019-05-17T06:06:27.845Z,11.30
2019-05-17T06:09:02.574Z,10.70
2019-05-17T06:11:35.630Z,10.90
2019-05-17T06:14:07.856Z,9.70
2019-05-17T06:16:42.290Z,11.67
2019-05-17T06:19:14.135Z,11.60
2019-05-17T06:21:46.423Z,11.53
2019-05-17T06:24:18.672Z,12.30
2019-05-17T06:26:52.518Z,12.93
2019-05-17T06:29:25.004Z,13.93
2019-05-17T06:31:57.371Z,13.70
2019-05-17T06:34:29.667Z,13.47
2019-05-17T06:37:03.553Z,14.10
2019-05-17T06:39:35.834Z,13.97
2019-05-17T06:42:08.053Z,14.97
2019-05-17T06:44:41.893Z,14.07
2019-05-17T06:47:15.397Z,16.10
2019-05-17T06:49:50.503Z,14.03
2019-05-17T06:52:22.624Z,13.53
2019-05-17T06:54:55.297Z,13.93
2019-05-17T06:57:27.580Z,13.77
2019-05-17T07:00:02.440Z,14.27
2019-05-17T07:02:36.176Z,14.03
2019-05-17T07:05:09.893Z,13.97
2019-05-17T07:07:42.386Z,14.57
2019-05-17T07:10:14.642Z,13.80
2019-05-17T07:12:57.831Z,14.77
2019-05-17T07:15:21.236Z,15.33
2019-05-17T07:17:53.470Z,13.97
2019-05-17T07:20:25.718Z,14.30
2019-05-17T07:23:00.349Z,12.77
2019-05-17T07:25:32.588Z,12.30
2019-05-17T07:28:04.845Z,13.90
2019-05-17T07:30:36.940Z,14.73
2019-05-17T07:33:10.169Z,13.77
2019-05-17T07:35:42.915Z,14.40
2019-05-17T07:38:15.382Z,13.53
2019-05-17T07:40:49.974Z,13.37
2019-05-17T07:43:21.969Z,14.33
2019-05-17T07:45:54.247Z,13.03
2019-05-17T07:48:26.458Z,13.63
2019-05-17T07:50:59.381Z,14.07
2019-05-17T07:53:31.830Z,14.07
2019-05-17T07:56:04.305Z,13.97
2019-05-17T07:58:36.539Z,13.03
2019-05-17T08:01:10.062Z,12.73
2019-05-17T08:03:42.518Z,12.97
2019-05-17T08:06:14.802Z,12.73
2019-05-17T08:08:49.917Z,12.23
2019-05-17T08:11:20.960Z,12.27
2019-05-17T08:13:53.271Z,12.10
2019-05-17T08:16:25.595Z,11.97
2019-05-17T08:19:00.164Z,11.83
2019-05-17T08:21:32.193Z,11.53
2019-05-17T08:24:04.430Z,10.47
2019-05-17T08:26:36.713Z,10.97
2019-05-17T08:29:10.984Z,12.37
2019-05-17T08:31:44.488Z,11.10
2019-05-17T08:34:16.527Z,10.90
2019-05-17T08:36:49.849Z,11.30
2019-05-17T08:39:22.201Z,12.30
2019-05-17T08:41:54.460Z,12.33
2019-05-17T08:44:26.697Z,11.07
2019-05-17T08:46:59.486Z,11.40
2019-05-17T08:49:31.978Z,11.07
2019-05-17T08:52:04.210Z,10.57
2019-05-17T08:54:36.499Z,10.23
2019-05-17T08:57:09.583Z,11.07
2019-05-17T08:59:41.892Z,9.67
2019-05-17T09:02:16.147Z,10.37
2019-05-17T09:04:49.799Z,9.67
2019-05-17T09:07:22.224Z,10.53
2019-05-17T09:09:54.444Z,10.17
2019-05-17T09:12:26.688Z,10.30
2019-05-17T09:15:00.434Z,9.97
2019-05-17T09:17:32.926Z,10.70
2019-05-17T09:20:05.165Z,8.53
2019-05-17T09:22:39.651Z,9.03
2019-05-17T09:25:17.085Z,9.70
2019-05-17T09:27:45.514Z,9.00
2019-05-17T09:30:20.201Z,8.97
2019-05-17T09:32:51.869Z,8.20
2019-05-17T09:35:25.211Z,8.10
2019-05-17T09:37:57.439Z,7.93
2019-05-17T09:40:29.679Z,8.37
2019-05-17T09:43:02.181Z,8.20
2019-05-17T09:45:34.417Z,8.20
2019-05-17T09:48:06.818Z,7.90
2019-05-17T09:50:39.879Z,8.03
2019-05-17T09:53:12.468Z,8.43
2019-05-17T09:55:44.753Z,8.90
2019-05-17T09:58:21.429Z,8.70
2019-05-17T10:00:52.360Z,9.10
2019-05-17T10:03:24.659Z,7.47
2019-05-17T10:05:56.964Z,7.63
2019-05-17T10:08:29.223Z,7.60
2019-05-17T10:11:08.347Z,7.50
2019-05-17T10:13:35.656Z,7.80
2019-05-17T10:16:10.140Z,7.17
2019-05-17T10:18:42.254Z,7.00
2019-05-17T10:21:14.525Z,7.83
2019-05-17T10:23:46.763Z,6.93
2019-05-17T10:26:22.297Z,7.67
2019-05-17T10:28:54.592Z,7.30
2019-05-17T10:31:26.829Z,7.63
2019-05-17T10:34:01.062Z,7.00
2019-05-17T10:36:33.044Z,6.40
2019-05-17T10:39:05.282Z,7.20
2019-05-17T10:41:37.673Z,7.40
2019-05-17T10:44:09.901Z,7.70
2019-05-17T10:46:42.246Z,7.83
2019-05-17T10:49:14.475Z,7.40
2019-05-17T10:51:46.682Z,7.53
2019-05-17T10:54:20.598Z,7.93
2019-05-17T10:56:55.003Z,7.17
2019-05-17T10:59:27.451Z,7.73
2019-05-17T11:01:59.824Z,7.43
2019-05-17T11:04:32.348Z,8.77
2019-05-17T11:07:04.576Z,8.00
2019-05-17T11:09:39.862Z,7.80
2019-05-17T11:12:10.799Z,7.40
2019-05-17T11:14:52.587Z,7.90
2019-05-17T11:17:16.966Z,7.93
2019-05-17T11:19:49.329Z,7.50
2019-05-17T11:22:21.549Z,7.53
2019-05-17T11:24:53.892Z,7.87
2019-05-17T11:27:28.415Z,7.23
2019-05-17T11:30:03.114Z,7.67
2019-05-17T11:32:35.422Z,7.83
2019-05-17T11:35:07.661Z,7.30
2019-05-17T11:37:39.894Z,7.73
2019-05-17T11:40:12.195Z,7.53
2019-05-17T11:42:44.571Z,7.13
2019-05-17T11:45:27.304Z,7.40
2019-05-17T11:47:50.963Z,7.07
2019-05-17T11:50:23.274Z,7.23
2019-05-17T11:52:55.698Z,7.33
2019-05-17T11:55:27.924Z,7.40
2019-05-17T11:58:00.160Z,7.60
2019-05-17T12:00:32.415Z,6.77
2019-05-17T12:03:04.721Z,6.27
2019-05-17T12:05:37.047Z,6.20
2019-05-17T12:08:09.285Z,5.90
2019-05-17T12:10:41.631Z,6.00
2019-05-17T12:13:14.191Z,6.00
2019-05-17T12:15:46.423Z,5.87
2019-05-17T12:18:18.651Z,5.10
2019-05-17T12:20:50.920Z,5.13
2019-05-17T12:23:24.833Z,5.80
2019-05-17T12:25:57.624Z,5.83
2019-05-17T12:28:30.442Z,5.78
2019-05-17T12:31:03.354Z,5.22
2019-05-17T12:33:36.240Z,4.60
2019-05-17T12:36:09.220Z,4.60
2019-05-17T12:38:41.471Z,4.50
2019-05-17T12:41:13.761Z,5.17
2019-05-17T12:43:46.049Z,5.47
2019-05-17T12:46:18.339Z,5.07
2019-05-17T12:48:50.574Z,4.93
2019-05-17T12:51:22.879Z,5.77
2019-05-17T12:53:55.207Z,4.73
2019-05-17T12:56:27.522Z,4.97
2019-05-17T12:58:59.755Z,5.90
2019-05-17T13:01:32.283Z,6.40
2019-05-17T13:04:04.555Z,6.33
2019-05-17T13:06:36.776Z,6.93
2019-05-17T13:09:09.244Z,6.30
2019-05-17T13:11:41.529Z,7.00
2019-05-17T13:14:13.804Z,7.03
2019-05-17T13:16:46.111Z,7.10
2019-05-17T13:19:18.330Z,6.30
2019-05-17T13:21:50.634Z,6.03
2019-05-17T13:24:22.865Z,6.47
2019-05-17T13:26:55.430Z,7.13
2019-05-17T13:29:27.639Z,6.70
2019-05-17T13:31:59.879Z,5.93
2019-05-17T13:34:32.209Z,6.40
2019-05-17T13:37:05.623Z,6.90
2019-05-17T13:39:38.137Z,6.50
2019-05-17T13:42:10.404Z,6.30
2019-05-17T13:44:42.632Z,6.40
2019-05-17T13:47:14.684Z,6.67
2019-05-17T13:49:46.915Z,6.43
2019-05-17T13:52:21.154Z,6.83
2019-05-17T13:54:53.586Z,6.70
2019-05-17T13:57:25.888Z,6.77
2019-05-17T13:59:58.203Z,6.80
2019-05-17T14:02:30.466Z,6.10
2019-05-17T14:05:02.718Z,5.90
2019-05-17T14:07:35.158Z,6.40
2019-05-17T14:10:07.352Z,5.90
2019-05-17T14:12:39.663Z,6.20
2019-05-17T14:15:12.050Z,6.10
2019-05-17T14:17:44.435Z,5.33
2019-05-17T14:20:16.707Z,6.00
2019-05-17T14:22:49.003Z,5.60
2019-05-17T14:25:21.331Z,5.40
2019-05-17T14:27:53.532Z,5.43
2019-05-17T14:30:25.727Z,5.67
2019-05-17T14:32:58.161Z,5.80
2019-05-17T14:35:30.407Z,5.27
2019-05-17T14:38:02.630Z,5.63
2019-05-17T14:41:05.091Z,5.70
2019-05-17T14:43:08.993Z,5.97
2019-05-17T14:45:41.673Z,5.73
2019-05-17T14:48:13.959Z,6.33
2019-05-17T14:50:46.238Z,5.90
2019-05-17T14:53:18.559Z,5.93
2019-05-17T14:55:50.822Z,6.20
2019-05-17T14:58:23.123Z,6.13
2019-05-17T15:00:55.541Z,6.83
2019-05-17T15:03:28.060Z,6.83
2019-05-17T15:06:00.361Z,6.60
2019-05-17T15:08:32.611Z,7.07
2019-05-17T15:11:04.833Z,6.30
2019-05-17T15:13:37.095Z,6.80
2019-05-17T15:16:09.332Z,6.30
2019-05-17T15:18:41.669Z,7.07
2019-05-17T15:21:15.582Z,6.73
2019-05-17T15:23:47.857Z,7.20
2019-05-17T15:26:20.123Z,7.27
2019-05-17T15:28:52.737Z,7.20
2019-05-17T15:31:24.994Z,7.00
2019-05-17T15:33:57.235Z,7.77
2019-05-17T15:36:29.555Z,9.23
2019-05-17T15:39:01.914Z,8.50
2019-05-17T15:41:35.727Z,9.63
2019-05-17T15:44:08.366Z,10.10
2019-05-17T15:46:40.752Z,9.33
2019-05-17T15:49:13.119Z,9.47
2019-05-17T15:51:45.376Z,9.77
2019-05-17T15:54:17.722Z,9.53
2019-05-17T15:56:50.030Z,10.17
2019-05-17T15:59:22.285Z,8.77
2019-05-17T16:01:54.535Z,9.03
2019-05-17T16:04:26.847Z,8.87
2019-05-17T16:07:00.691Z,8.50
2019-05-17T16:09:32.963Z,8.83
2019-05-17T16:12:05.287Z,8.93
2019-05-17T16:14:37.590Z,8.10
2019-05-17T16:17:09.857Z,9.67
2019-05-17T16:19:42.220Z,10.27
2019-05-17T16:22:14.623Z,9.33
2019-05-17T16:24:47.264Z,9.63
2019-05-17T16:27:19.505Z,9.03
2019-05-17T16:29:51.805Z,9.03
2019-05-17T16:32:24.112Z,8.53
2019-05-17T16:34:56.675Z,8.77
2019-05-17T16:37:29.150Z,9.40
2019-05-17T16:40:01.410Z,8.83
2019-05-17T16:42:33.870Z,9.27
2019-05-17T16:45:06.153Z,8.23
2019-05-17T16:47:38.515Z,9.33
2019-05-17T16:50:10.884Z,9.47
2019-05-17T16:52:43.381Z,10.50
2019-05-17T16:55:15.756Z,10.80
2019-05-17T16:57:48.022Z,11.77
2019-05-17T17:00:20.499Z,10.57
2019-05-17T17:02:55.277Z,10.70
2019-05-17T17:05:30.564Z,10.23
2019-05-17T17:08:02.904Z,10.40
2019-05-17T17:10:35.142Z,11.27
2019-05-17T17:13:07.404Z,11.00
2019-05-17T17:15:40.033Z,11.03
2019-05-17T17:18:12.349Z,10.37
2019-05-17T17:20:44.677Z,10.57
2019-05-17T17:23:16.999Z,10.40
2019-05-17T17:25:49.236Z,9.90
2019-05-17T17:28:24.966Z,10.63
2019-05-17T17:30:55.588Z,11.00
2019-05-17T17:33:27.897Z,11.33
2019-05-17T17:36:00.151Z,11.70
2019-05-17T17:38:32.522Z,11.50
2019-05-17T17:41:05.035Z,12.43
2019-05-17T17:43:37.456Z,11.97
2019-05-17T17:46:10.520Z,11.93
2019-05-17T17:48:45.787Z,11.20
2019-05-17T17:51:16.992Z,12.67
2019-05-17T17:53:50.748Z,11.33
2019-05-17T17:56:23.152Z,11.80
2019-05-17T17:58:55.437Z,12.83
2019-05-17T18:01:27.704Z,13.57
2019-05-17T18:04:00.287Z,12.83
2019-05-17T18:06:32.989Z,12.87
2019-05-17T18:09:05.301Z,11.83
2019-05-17T18:11:37.881Z,12.23
2019-05-17T18:14:13.259Z,11.87
2019-05-17T18:16:44.166Z,12.17
2019-05-17T18:19:16.415Z,11.57
2019-05-17T18:21:48.655Z,12.47
2019-05-17T18:24:20.944Z,12.13
2019-05-17T18:26:53.293Z,12.20
2019-05-17T18:29:25.693Z,11.87
2019-05-17T18:31:57.985Z,12.80
2019-05-17T18:34:30.210Z,12.13
2019-05-17T18:37:04.115Z,11.70
2019-05-17T18:39:36.443Z,11.43
2019-05-17T18:42:08.855Z,11.57
2019-05-17T18:44:41.092Z,12.53
2019-05-17T18:47:13.566Z,12.10
2019-05-17T18:49:45.918Z,11.47
2019-05-17T18:52:18.169Z,12.87
2019-05-17T18:54:50.434Z,12.43
2019-05-17T18:57:22.737Z,13.60
2019-05-17T18:59:55.152Z,12.77
2019-05-17T19:02:27.401Z,13.83
2019-05-17T19:04:59.639Z,13.87
2019-05-17T19:07:31.873Z,15.00
2019-05-17T19:10:04.326Z,12.87
2019-05-17T19:12:36.687Z,13.87
2019-05-17T19:15:08.985Z,13.30
2019-05-17T19:17:41.234Z,14.73
2019-05-17T19:20:13.490Z,13.90
2019-05-17T19:22:46.034Z,14.33
2019-05-17T19:25:19.354Z,14.07
2019-05-17T19:27:51.582Z,15.23
2019-05-17T19:30:25.156Z,12.90
2019-05-17T19:32:57.355Z,13.73
2019-05-17T19:35:29.638Z,13.23
2019-05-17T19:38:01.924Z,14.00
2019-05-17T19:40:34.294Z,13.60
2019-05-17T19:43:06.734Z,14.53
2019-05-17T19:45:39.082Z,13.73
2019-05-17T19:48:11.309Z,14.27
2019-05-17T19:50:43.696Z,13.70
2019-05-17T19:53:16.014Z,12.93
2019-05-17T19:55:48.554Z,14.10
2019-05-17T19:58:21.914Z,15.50
2019-05-17T20:00:54.208Z,14.50
2019-05-17T20:03:26.471Z,14.40
2019-05-17T20:05:59.035Z,15.00
2019-05-17T20:08:31.440Z,14.17
2019-05-17T20:11:03.700Z,13.93
2019-05-17T20:13:36.074Z,14.87
2019-05-17T20:16:08.447Z,14.87
2019-05-17T20:18:40.830Z,15.13
2019-05-17T20:21:13.285Z,15.33
2019-05-17T20:23:45.554Z,15.97
2019-05-17T20:26:17.813Z,14.90
2019-05-17T20:28:50.058Z,15.03
2019-05-17T20:31:22.325Z,15.47
2019-05-17T20:33:54.576Z,16.53
2019-05-17T20:36:26.793Z,16.20
2019-05-17T20:38:59.141Z,15.40
2019-05-17T20:41:31.389Z,15.80
2019-05-17T20:44:03.661Z,14.93
2019-05-17T20:46:35.904Z,15.73
2019-05-17T20:49:08.126Z,15.57
2019-05-17T20:51:40.486Z,15.83
2019-05-17T20:54:12.960Z,16.03
2019-05-17T20:56:45.262Z,16.23
2019-05-17T20:59:17.583Z,15.33
2019-05-17T21:01:50.070Z,17.20
2019-05-17T21:04:22.283Z,17.50
2019-05-17T21:06:54.644Z,16.83
2019-05-17T21:09:26.937Z,17.03
2019-05-17T21:11:59.176Z,15.67
2019-05-17T21:14:31.537Z,16.93
2019-05-17T21:17:03.857Z,16.43
2019-05-17T21:19:36.110Z,17.00
2019-05-17T21:22:08.803Z,17.53
2019-05-17T21:24:41.076Z,18.90
2019-05-17T21:27:13.315Z,18.40
2019-05-17T21:29:46.806Z,18.97
2019-05-17T21:32:20.163Z,19.37
2019-05-17T21:34:52.513Z,18.97
2019-05-17T21:37:24.766Z,19.67
2019-05-17T21:39:57.003Z,19.77
2019-05-17T21:42:29.412Z,19.10
2019-05-17T21:45:01.658Z,20.53
2019-05-17T21:47:33.916Z,21.80
2019-05-17T21:50:06.170Z,20.47
2019-05-17T21:52:38.219Z,20.17
2019-05-17T21:55:10.932Z,19.90
2019-05-17T21:57:43.338Z,21.50
2019-05-17T22:00:15.565Z,20.20
2019-05-17T22:02:49.437Z,21.67
2019-05-17T22:05:21.756Z,21.10
2019-05-17T22:07:53.984Z,22.03
2019-05-17T22:10:26.330Z,23.03
2019-05-17T22:12:58.643Z,24.97
2019-05-17T22:15:31.054Z,24.73
2019-05-17T22:18:03.458Z,25.73
2019-05-17T22:20:35.729Z,26.30
2019-05-17T22:23:08.128Z,28.27
2019-05-17T22:25:40.624Z,25.97
2019-05-17T22:28:13.590Z,27.27
2019-05-17T22:30:45.843Z,27.83
2019-05-17T22:33:18.115Z,28.00
2019-05-17T22:35:52.878Z,28.33
2019-05-17T22:38:25.121Z,28.87
2019-05-17T22:40:57.471Z,27.37
2019-05-17T22:43:29.702Z,28.40
2019-05-17T22:46:01.954Z,28.60
2019-05-17T22:48:34.211Z,29.00
2019-05-17T22:51:06.419Z,28.17
2019-05-17T22:53:38.692Z,28.57
2019-05-17T22:56:10.956Z,27.73
2019-05-17T22:58:45.210Z,28.37
2019-05-17T23:01:17.469Z,27.80
2019-05-17T23:03:49.758Z,28.33
2019-05-17T23:06:21.998Z,27.77
2019-05-17T23:08:54.278Z,26.33
2019-05-17T23:11:26.722Z,26.23
2019-05-17T23:14:01.003Z,24.33
2019-05-17T23:16:33.332Z,25.03
2019-05-17T23:19:05.545Z,25.43
2019-05-17T23:21:37.833Z,26.33
2019-05-17T23:24:10.032Z,24.30
2019-05-17T23:26:42.533Z,23.53
2019-05-17T23:29:14.800Z,24.30
2019-05-17T23:31:47.039Z,23.63
2019-05-17T23:34:19.356Z,24.33
2019-05-17T23:36:51.640Z,24.13
2019-05-17T23:39:23.909Z,22.87
2019-05-17T23:41:56.261Z,23.20
2019-05-17T23:44:28.498Z,23.30
2019-05-17T23:47:07.122Z,23.77
2019-05-17T23:49:34.940Z,24.03
2019-05-17T23:52:07.357Z,23.83
2019-05-17T23:54:39.624Z,23.30
2019-05-17T23:57:11.977Z,23.37
2019-05-17T23:59:45.273Z,23.17
